Allegan, Michigan
Current Conditions -  °F | °C
As of 2:53 PM on Sunday 25 Jan 2015 (Local Time) from KBIV Reporting Station
Broken Clouds Broken Clouds  
Wind Chill: 12°   Ceiling: 4400
Heat Index: 25°   Visibility: 10mi
Dew Point: 12°   Wind: 17mph
Humidity: 58%   Direction: 50°NE
Pressure: 29.88"   Gusts: 23mph
Location:  42.53°N, 85.86°W
Report Text: KBIV 251953Z AUTO 05015G20KT 10SM BKN044 M04/M11 A2988 RMK AO2 SLP126 T10391111
Loading
Personal Weather Stations






























Interactive Weather Map New forecast layout! Learn more

10-Day Weather Forecast

Advertisements
Track Severe Weather on mobile